Time;durP1;ratioP1;P1;durP2;ratioP2;P2;SDS_P1;SDS_P2;PMS_P1;PMS_P2;Temp;Humidity;BMP_temperature;BMP_pressure;BME280_temperature;BME280_humidity;BME280_pressure;Samples;Min_cycle;Max_cycle;Signal;HPM_P1;HPM_P2
2023/07/17 00:01:56;;;;;;;;;;;15.20;99.90;;;;;;5124196;27;19976;-64
2023/07/17 00:04:23;;;;;;;;;;;15.30;99.90;;;;;;5092592;28;19917;-65
2023/07/17 00:06:49;;;;;;;;;;;15.40;99.90;;;;;;5109650;27;19920;-65
2023/07/17 00:09:16;;;;;;;;;;;15.50;99.90;;;;;;5111843;28;19916;-66
2023/07/17 00:11:43;;;;;;;;;;;15.50;99.90;;;;;;5121220;27;20370;-66
2023/07/17 00:14:10;;;;;;;;;;;15.50;99.90;;;;;;5102431;27;20004;-68
2023/07/17 00:16:36;;;;;;;;;;;15.60;99.90;;;;;;5099967;27;19950;-66
2023/07/17 00:19:03;;;;;;;;;;;15.70;99.90;;;;;;5097897;28;19919;-67
2023/07/17 00:21:29;;;;;;;;;;;15.80;99.90;;;;;;5110792;28;19916;-66
2023/07/17 00:23:57;;;;;;;;;;;16.00;99.90;;;;;;5103582;28;20420;-66
2023/07/17 00:26:24;;;;;;;;;;;16.20;99.90;;;;;;5095637;28;19919;-65
2023/07/17 00:28:50;;;;;;;;;;;16.40;99.90;;;;;;5104737;28;19912;-67
2023/07/17 00:31:17;;;;;;;;;;;16.50;99.90;;;;;;5108935;28;19916;-65
2023/07/17 00:33:43;;;;;;;;;;;16.70;99.90;;;;;;5105346;28;19919;-66
2023/07/17 00:36:10;;;;;;;;;;;16.80;99.90;;;;;;5093470;28;19972;-66
2023/07/17 00:38:37;;;;;;;;;;;17.00;99.90;;;;;;5101976;28;19916;-67
2023/07/17 00:41:03;;;;;;;;;;;17.00;99.90;;;;;;5099295;28;19908;-67
2023/07/17 00:43:30;;;;;;;;;;;17.10;99.90;;;;;;5094739;28;19920;-66
2023/07/17 00:45:57;;;;;;;;;;;17.30;99.90;;;;;;5094493;28;20081;-66
2023/07/17 00:48:27;;;;;;;;;;;17.30;99.90;;;;;;5105665;28;21386;-67
2023/07/17 00:50:53;;;;;;;;;;;17.50;99.90;;;;;;5105420;28;19920;-67
2023/07/17 00:53:20;;;;;;;;;;;17.60;99.90;;;;;;5109212;28;19918;-65
2023/07/17 00:55:47;;;;;;;;;;;17.70;99.90;;;;;;5093162;28;20402;-66
2023/07/17 00:58:13;;;;;;;;;;;17.80;99.90;;;;;;5098325;28;19916;-65
2023/07/17 01:00:40;;;;;;;;;;;17.90;99.90;;;;;;5102064;28;19907;-67
2023/07/17 01:03:07;;;;;;;;;;;18.00;99.90;;;;;;5107787;27;19927;-65
2023/07/17 01:05:34;;;;;;;;;;;17.90;99.90;;;;;;5090712;28;19916;-66
2023/07/17 01:08:01;;;;;;;;;;;17.90;99.90;;;;;;5107809;28;19915;-66
2023/07/17 01:10:28;;;;;;;;;;;18.00;99.90;;;;;;5110572;28;19912;-65
2023/07/17 01:12:54;;;;;;;;;;;17.90;99.90;;;;;;5108329;28;20002;-65
2023/07/17 01:15:21;;;;;;;;;;;17.90;99.90;;;;;;5103263;28;19959;-65
2023/07/17 01:17:48;;;;;;;;;;;17.80;99.90;;;;;;5105800;28;19915;-65
2023/07/17 01:20:14;;;;;;;;;;;17.80;99.90;;;;;;5110634;28;19907;-67
2023/07/17 01:22:53;;;;;;;;;;;17.80;99.90;;;;;;5110163;28;20400;-67
2023/07/17 01:25:20;;;;;;;;;;;17.70;99.90;;;;;;5110646;28;19915;-69
2023/07/17 01:27:46;;;;;;;;;;;17.50;99.90;;;;;;5090439;28;19919;-65
2023/07/17 01:30:13;;;;;;;;;;;17.60;99.90;;;;;;5100831;28;19911;-65
2023/07/17 01:32:40;;;;;;;;;;;17.70;99.90;;;;;;5111286;28;19916;-65
2023/07/17 01:35:07;;;;;;;;;;;17.80;99.90;;;;;;5111120;28;19912;-66
2023/07/17 01:37:34;;;;;;;;;;;17.80;99.90;;;;;;5109930;28;19923;-64
2023/07/17 01:40:03;;;;;;;;;;;18.00;99.90;;;;;;5109541;28;19926;-65
2023/07/17 01:42:30;;;;;;;;;;;18.10;99.90;;;;;;5105359;28;19924;-66
2023/07/17 01:44:57;;;;;;;;;;;18.10;99.90;;;;;;5101836;28;20295;-65
2023/07/17 01:47:24;;;;;;;;;;;18.10;99.90;;;;;;5110501;28;20283;-67
2023/07/17 01:49:50;;;;;;;;;;;18.20;99.90;;;;;;5110681;28;20025;-64
2023/07/17 01:52:17;;;;;;;;;;;18.40;99.90;;;;;;5111595;28;19924;-66
2023/07/17 01:54:44;;;;;;;;;;;18.40;99.90;;;;;;5111707;28;19915;-66
2023/07/17 01:57:11;;;;;;;;;;;18.60;99.90;;;;;;5090688;28;20291;-68
2023/07/17 01:59:37;;;;;;;;;;;18.70;99.90;;;;;;5098953;28;19922;-65
2023/07/17 02:02:04;;;;;;;;;;;18.70;99.90;;;;;;5110843;28;19916;-66
2023/07/17 02:04:31;;;;;;;;;;;18.80;99.90;;;;;;5109437;28;19912;-66
2023/07/17 02:06:57;;;;;;;;;;;18.90;99.90;;;;;;5094688;28;20543;-64
2023/07/17 02:09:24;;;;;;;;;;;19.00;99.90;;;;;;5088299;28;19962;-63
2023/07/17 02:11:50;;;;;;;;;;;19.20;99.90;;;;;;5089436;28;19908;-70
2023/07/17 02:14:17;;;;;;;;;;;19.20;99.90;;;;;;5089047;28;19912;-66
2023/07/17 02:16:44;;;;;;;;;;;19.40;99.90;;;;;;5090431;28;19908;-63
2023/07/17 02:19:10;;;;;;;;;;;19.40;99.90;;;;;;5105666;28;20345;-64
2023/07/17 02:21:37;;;;;;;;;;;19.40;99.90;;;;;;5109122;28;19919;-66
2023/07/17 02:24:04;;;;;;;;;;;19.40;99.90;;;;;;5109822;28;19907;-64
2023/07/17 02:26:30;;;;;;;;;;;19.30;99.90;;;;;;5098426;28;19987;-66
2023/07/17 02:28:57;;;;;;;;;;;19.30;99.90;;;;;;5089082;28;19912;-64
2023/07/17 02:31:24;;;;;;;;;;;19.30;99.90;;;;;;5089236;28;19916;-67
2023/07/17 02:33:50;;;;;;;;;;;19.30;99.90;;;;;;5095241;28;19911;-65
2023/07/17 02:36:17;;;;;;;;;;;19.40;99.90;;;;;;5106840;28;20531;-65
2023/07/17 02:38:44;;;;;;;;;;;19.50;99.90;;;;;;5115009;28;19985;-65
2023/07/17 02:41:10;;;;;;;;;;;19.50;99.90;;;;;;5107480;28;20371;-64
2023/07/17 02:43:37;;;;;;;;;;;19.50;99.90;;;;;;5114551;28;19929;-64
2023/07/17 02:46:04;;;;;;;;;;;19.50;99.90;;;;;;5108785;28;19916;-63
2023/07/17 02:48:30;;;;;;;;;;;19.60;99.90;;;;;;5113044;28;19912;-63
2023/07/17 02:50:57;;;;;;;;;;;19.60;99.90;;;;;;5106289;28;19920;-64
2023/07/17 02:53:24;;;;;;;;;;;19.50;99.90;;;;;;5099578;28;19923;-65
2023/07/17 02:55:51;;;;;;;;;;;19.40;99.90;;;;;;5095744;28;20683;-63
2023/07/17 02:58:18;;;;;;;;;;;19.20;99.90;;;;;;5101174;28;19946;-61
2023/07/17 03:00:44;;;;;;;;;;;19.00;99.90;;;;;;5095699;28;20360;-63
2023/07/17 03:03:11;;;;;;;;;;;18.90;99.90;;;;;;5103772;28;19999;-64
2023/07/17 03:05:38;;;;;;;;;;;18.70;99.90;;;;;;5104157;28;19924;-66
2023/07/17 03:08:04;;;;;;;;;;;18.50;99.90;;;;;;5111727;27;19911;-66
2023/07/17 03:10:31;;;;;;;;;;;18.50;99.90;;;;;;5121481;27;19908;-65
2023/07/17 03:12:58;;;;;;;;;;;18.40;99.90;;;;;;5107813;27;20368;-65
2023/07/17 03:15:24;;;;;;;;;;;18.50;99.90;;;;;;5113152;28;19916;-66
2023/07/17 03:17:51;;;;;;;;;;;19.00;99.90;;;;;;5114070;28;20417;-65
2023/07/17 03:20:18;;;;;;;;;;;20.30;99.90;;;;;;5110604;28;20292;-65
2023/07/17 03:22:45;;;;;;;;;;;21.60;99.90;;;;;;5113439;28;19920;-63
2023/07/17 03:25:11;;;;;;;;;;;21.80;99.90;;;;;;5113919;28;19952;-65
2023/07/17 03:27:38;;;;;;;;;;;21.70;99.90;;;;;;5114070;28;19919;-64
2023/07/17 03:30:05;;;;;;;;;;;21.30;99.90;;;;;;5114002;28;19908;-65
2023/07/17 03:32:33;;;;;;;;;;;20.90;99.90;;;;;;5114454;28;19915;-67
2023/07/17 03:35:00;;;;;;;;;;;20.40;99.90;;;;;;5102262;28;20368;-65
2023/07/17 03:37:27;;;;;;;;;;;19.90;99.90;;;;;;5110924;28;19915;-65
2023/07/17 03:39:53;;;;;;;;;;;19.70;99.90;;;;;;5114025;28;20395;-65
2023/07/17 03:42:20;;;;;;;;;;;19.50;99.90;;;;;;5113433;28;19920;-66
2023/07/17 03:44:47;;;;;;;;;;;19.40;99.90;;;;;;5113475;28;19916;-65
2023/07/17 03:47:13;;;;;;;;;;;19.40;99.90;;;;;;5098174;28;19920;-66
2023/07/17 03:49:40;;;;;;;;;;;19.30;99.90;;;;;;5103143;28;19918;-65
2023/07/17 03:52:06;;;;;;;;;;;19.20;99.90;;;;;;5113514;28;20002;-67
2023/07/17 03:54:33;;;;;;;;;;;19.20;99.90;;;;;;5113205;28;20257;-66
2023/07/17 03:57:00;;;;;;;;;;;19.50;99.90;;;;;;5105321;28;19915;-63
2023/07/17 03:59:26;;;;;;;;;;;19.50;99.90;;;;;;5112728;28;19962;-64
2023/07/17 04:01:53;;;;;;;;;;;19.60;99.90;;;;;;5113083;28;19914;-65
2023/07/17 04:04:20;;;;;;;;;;;19.70;99.90;;;;;;5113689;28;19912;-65
2023/07/17 04:06:46;;;;;;;;;;;19.60;99.90;;;;;;5112309;28;19916;-64
2023/07/17 04:09:15;;;;;;;;;;;19.50;99.90;;;;;;5113125;28;19914;-64
2023/07/17 04:11:41;;;;;;;;;;;19.50;99.90;;;;;;5112562;28;20337;-66
2023/07/17 04:14:08;;;;;;;;;;;19.50;99.90;;;;;;5106101;28;19919;-66
2023/07/17 04:16:36;;;;;;;;;;;19.30;99.90;;;;;;5108910;28;19907;-63
2023/07/17 04:19:03;;;;;;;;;;;19.30;99.90;;;;;;5112476;28;19907;-63
2023/07/17 04:21:30;;;;;;;;;;;19.30;99.90;;;;;;5109422;28;19912;-64
2023/07/17 04:23:56;;;;;;;;;;;19.30;99.90;;;;;;5100286;28;20257;-66
2023/07/17 04:26:23;;;;;;;;;;;19.20;99.90;;;;;;5100909;28;19980;-66
2023/07/17 04:28:50;;;;;;;;;;;19.30;99.90;;;;;;5111801;28;20291;-66
2023/07/17 04:31:17;;;;;;;;;;;19.50;99.90;;;;;;5110887;28;19908;-64
2023/07/17 04:33:43;;;;;;;;;;;19.50;99.90;;;;;;5103069;28;19955;-63
2023/07/17 04:36:10;;;;;;;;;;;19.30;99.90;;;;;;5101402;27;19908;-67
2023/07/17 04:38:37;;;;;;;;;;;19.40;99.90;;;;;;5111550;28;20323;-67
2023/07/17 04:41:05;;;;;;;;;;;19.30;99.90;;;;;;5109965;28;19953;-66
2023/07/17 04:43:31;;;;;;;;;;;19.10;99.90;;;;;;5104359;28;19920;-67
2023/07/17 04:45:58;;;;;;;;;;;18.90;99.90;;;;;;5097294;27;20015;-67
2023/07/17 04:48:25;;;;;;;;;;;18.90;99.90;;;;;;5112490;28;19998;-66
2023/07/17 04:50:53;;;;;;;;;;;19.00;99.90;;;;;;5091668;28;20293;-68
2023/07/17 04:53:20;;;;;;;;;;;19.20;99.90;;;;;;5106161;28;19912;-67
2023/07/17 04:55:48;;;;;;;;;;;19.30;99.90;;;;;;5106197;28;20027;-67
2023/07/17 04:58:15;;;;;;;;;;;19.40;99.90;;;;;;5112270;28;19907;-66
2023/07/17 05:00:45;;;;;;;;;;;19.60;99.90;;;;;;5109048;28;19916;-66
2023/07/17 05:03:13;;;;;;;;;;;19.60;99.90;;;;;;5107124;28;19915;-67
2023/07/17 05:05:42;;;;;;;;;;;19.70;99.90;;;;;;5097424;28;19915;-66
2023/07/17 05:08:09;;;;;;;;;;;19.80;99.90;;;;;;5112296;28;19974;-67
2023/07/17 05:10:36;;;;;;;;;;;19.80;99.90;;;;;;5108690;28;19923;-66
2023/07/17 05:13:03;;;;;;;;;;;19.70;99.90;;;;;;5103775;28;20365;-66
2023/07/17 05:15:29;;;;;;;;;;;19.90;99.90;;;;;;5091417;28;19911;-64
2023/07/17 05:17:56;;;;;;;;;;;20.10;99.90;;;;;;5111440;28;19919;-66
2023/07/17 05:20:22;;;;;;;;;;;20.30;99.90;;;;;;5109879;28;19915;-66
2023/07/17 05:22:49;;;;;;;;;;;20.40;99.90;;;;;;5107824;28;19912;-64
2023/07/17 05:25:16;;;;;;;;;;;20.50;99.90;;;;;;5104372;28;19908;-66
2023/07/17 05:27:42;;;;;;;;;;;20.30;99.90;;;;;;5111652;28;19980;-67
2023/07/17 05:30:09;;;;;;;;;;;20.30;99.90;;;;;;5110992;28;19908;-66
2023/07/17 05:32:36;;;;;;;;;;;20.30;99.90;;;;;;5106825;28;19939;-67
2023/07/17 05:35:03;;;;;;;;;;;20.40;99.90;;;;;;5091408;28;19966;-66
2023/07/17 05:37:29;;;;;;;;;;;20.60;99.90;;;;;;5106372;28;19912;-66
2023/07/17 05:39:56;;;;;;;;;;;20.70;99.90;;;;;;5111569;28;19912;-65
2023/07/17 05:42:22;;;;;;;;;;;20.80;99.90;;;;;;5106601;28;19920;-66
2023/07/17 05:44:49;;;;;;;;;;;20.90;99.90;;;;;;5092986;28;19916;-65
2023/07/17 05:47:16;;;;;;;;;;;20.90;99.90;;;;;;5102837;28;19920;-66
2023/07/17 05:49:42;;;;;;;;;;;21.00;99.90;;;;;;5111645;28;20310;-63
2023/07/17 05:52:09;;;;;;;;;;;20.90;99.90;;;;;;5106138;28;20002;-66
2023/07/17 05:54:36;;;;;;;;;;;20.60;99.90;;;;;;5096736;28;19912;-63
2023/07/17 05:57:03;;;;;;;;;;;20.50;99.90;;;;;;5106662;28;19912;-64
2023/07/17 05:59:29;;;;;;;;;;;20.90;99.90;;;;;;5110900;28;19998;-66
2023/07/17 06:01:56;;;;;;;;;;;20.90;99.90;;;;;;5105374;28;20105;-67
2023/07/17 06:04:23;;;;;;;;;;;21.20;99.90;;;;;;5096593;28;19908;-65
2023/07/17 06:06:49;;;;;;;;;;;21.40;99.90;;;;;;5098637;28;19963;-63
2023/07/17 06:09:16;;;;;;;;;;;21.50;99.90;;;;;;5115218;28;19915;-64
2023/07/17 06:11:43;;;;;;;;;;;21.80;99.90;;;;;;5108872;28;19912;-64
2023/07/17 06:14:09;;;;;;;;;;;22.30;99.90;;;;;;5102480;28;20273;-65
2023/07/17 06:16:36;;;;;;;;;;;22.40;99.90;;;;;;5098420;28;19916;-64
2023/07/17 06:19:03;;;;;;;;;;;22.70;99.90;;;;;;5114814;28;19912;-63
2023/07/17 06:21:29;;;;;;;;;;;22.60;99.90;;;;;;5107907;27;19911;-65
2023/07/17 06:23:56;;;;;;;;;;;22.50;99.90;;;;;;5103991;28;19915;-64
2023/07/17 06:26:23;;;;;;;;;;;22.10;99.90;;;;;;5099858;27;19927;-66
2023/07/17 06:28:50;;;;;;;;;;;21.60;99.90;;;;;;5096490;28;20023;-65
2023/07/17 06:31:20;;;;;;;;;;;21.30;99.90;;;;;;5089105;27;20324;-64
2023/07/17 06:33:46;;;;;;;;;;;20.80;99.90;;;;;;5105497;28;19912;-64
2023/07/17 06:36:13;;;;;;;;;;;20.10;99.90;;;;;;5099987;28;20356;-66
2023/07/17 06:38:39;;;;;;;;;;;19.80;99.90;;;;;;5109664;28;19958;-64
2023/07/17 06:41:06;;;;;;;;;;;19.30;99.90;;;;;;5106637;28;19908;-63
2023/07/17 06:43:33;;;;;;;;;;;19.00;99.90;;;;;;5106224;27;19920;-65
2023/07/17 06:45:59;;;;;;;;;;;18.70;99.90;;;;;;5105400;28;19939;-65
2023/07/17 06:48:26;;;;;;;;;;;18.30;99.90;;;;;;5111569;27;19918;-64
2023/07/17 06:50:53;;;;;;;;;;;18.10;99.90;;;;;;5089779;28;19919;-66
2023/07/17 06:53:19;;;;;;;;;;;17.90;99.90;;;;;;5105552;28;20024;-66
2023/07/17 06:55:46;;;;;;;;;;;17.80;99.90;;;;;;5096569;28;19988;-65
2023/07/17 06:58:13;;;;;;;;;;;17.60;99.90;;;;;;5112307;28;19911;-62
2023/07/17 07:00:39;;;;;;;;;;;17.50;99.90;;;;;;5108704;28;19916;-64
2023/07/17 07:03:06;;;;;;;;;;;17.30;99.90;;;;;;5102970;28;20060;-64
2023/07/17 07:05:33;;;;;;;;;;;17.20;99.90;;;;;;5092713;28;19908;-67
2023/07/17 07:07:59;;;;;;;;;;;17.10;99.90;;;;;;5112676;27;19920;-65
2023/07/17 07:10:26;;;;;;;;;;;16.90;99.90;;;;;;5111246;28;19961;-68
2023/07/17 07:12:53;;;;;;;;;;;16.70;99.90;;;;;;5098125;27;19973;-65
2023/07/17 07:15:19;;;;;;;;;;;16.70;99.90;;;;;;5097547;28;19908;-63
2023/07/17 07:17:46;;;;;;;;;;;16.60;99.90;;;;;;5106913;28;19951;-63
2023/07/17 07:20:13;;;;;;;;;;;16.50;99.90;;;;;;5112907;28;20280;-65
2023/07/17 07:22:39;;;;;;;;;;;16.40;99.90;;;;;;5103372;28;19968;-66
2023/07/17 07:25:06;;;;;;;;;;;16.40;99.90;;;;;;5106820;28;19931;-66
2023/07/17 07:27:33;;;;;;;;;;;16.30;99.90;;;;;;5095662;28;19951;-62
2023/07/17 07:30:00;;;;;;;;;;;16.20;99.90;;;;;;5093604;28;19913;-64
2023/07/17 07:32:26;;;;;;;;;;;16.20;99.90;;;;;;5076163;28;19915;-62
2023/07/17 07:34:53;;;;;;;;;;;16.10;99.90;;;;;;5094007;28;19912;-64
2023/07/17 07:37:19;;;;;;;;;;;16.10;99.90;;;;;;5093718;28;19962;-65
2023/07/17 07:39:46;;;;;;;;;;;16.00;99.90;;;;;;5095520;28;19912;-61
2023/07/17 07:42:13;;;;;;;;;;;15.90;99.90;;;;;;5113985;28;20276;-65
2023/07/17 07:44:40;;;;;;;;;;;15.90;99.90;;;;;;5095840;28;19957;-62
2023/07/17 07:47:06;;;;;;;;;;;15.90;99.90;;;;;;5114104;28;20010;-68
2023/07/17 07:49:33;;;;;;;;;;;15.80;99.90;;;;;;5112879;28;19912;-67
2023/07/17 07:52:00;;;;;;;;;;;15.80;99.90;;;;;;5114073;28;20353;-65
2023/07/17 07:54:26;;;;;;;;;;;15.80;99.90;;;;;;5109750;28;20057;-66
2023/07/17 07:56:53;;;;;;;;;;;15.70;99.90;;;;;;5082815;28;19908;-64
2023/07/17 07:59:20;;;;;;;;;;;15.60;99.90;;;;;;5092829;28;19908;-67
2023/07/17 08:01:46;;;;;;;;;;;15.60;99.90;;;;;;5110344;28;20099;-68
2023/07/17 08:04:13;;;;;;;;;;;15.60;99.90;;;;;;5112716;28;19908;-64
2023/07/17 08:06:39;;;;;;;;;;;15.50;99.90;;;;;;5108614;28;20018;-66
2023/07/17 08:09:06;;;;;;;;;;;15.50;99.90;;;;;;5108133;28;20003;-68
2023/07/17 08:11:33;;;;;;;;;;;15.50;99.90;;;;;;5112559;28;19951;-65
2023/07/17 08:13:59;;;;;;;;;;;15.40;99.90;;;;;;5112626;28;20007;-64
2023/07/17 08:16:26;;;;;;;;;;;15.40;99.90;;;;;;5112902;28;19955;-66
2023/07/17 08:18:53;;;;;;;;;;;15.30;99.90;;;;;;5094540;28;19961;-66
2023/07/17 08:21:19;;;;;;;;;;;15.30;99.90;;;;;;5096824;27;19911;-66
2023/07/17 08:23:46;;;;;;;;;;;15.20;99.90;;;;;;5113040;28;20280;-66
2023/07/17 08:26:12;;;;;;;;;;;15.20;99.90;;;;;;5112650;28;19916;-67
2023/07/17 08:28:39;;;;;;;;;;;15.10;99.90;;;;;;5096305;28;19912;-65
2023/07/17 08:31:06;;;;;;;;;;;15.10;99.90;;;;;;5103519;28;19968;-66
2023/07/17 08:33:33;;;;;;;;;;;15.00;99.90;;;;;;5109722;28;19907;-66
2023/07/17 08:35:59;;;;;;;;;;;15.00;99.90;;;;;;5106053;28;19919;-67
2023/07/17 08:38:26;;;;;;;;;;;15.00;99.90;;;;;;5111595;27;19922;-65
2023/07/17 08:40:53;;;;;;;;;;;15.00;99.90;;;;;;5105397;28;20343;-67
2023/07/17 08:43:21;;;;;;;;;;;14.90;99.90;;;;;;5108335;28;20445;-67
2023/07/17 08:45:49;;;;;;;;;;;14.90;99.90;;;;;;5115871;27;19998;-67
2023/07/17 08:48:16;;;;;;;;;;;14.90;99.90;;;;;;5102805;28;19915;-67
2023/07/17 08:50:43;;;;;;;;;;;14.80;99.90;;;;;;5111385;28;19958;-64
2023/07/17 08:53:10;;;;;;;;;;;14.80;99.90;;;;;;5111711;28;20002;-65
2023/07/17 08:55:37;;;;;;;;;;;14.80;99.90;;;;;;5108346;28;19964;-63
2023/07/17 08:58:04;;;;;;;;;;;14.70;99.90;;;;;;5091816;28;20345;-62
2023/07/17 09:00:31;;;;;;;;;;;14.60;99.90;;;;;;5101587;28;19911;-63
2023/07/17 09:02:58;;;;;;;;;;;14.70;99.90;;;;;;5111692;28;19922;-65
2023/07/17 09:05:25;;;;;;;;;;;14.60;99.90;;;;;;5110422;28;19916;-67
2023/07/17 09:07:51;;;;;;;;;;;14.50;99.90;;;;;;5100935;28;19920;-63
2023/07/17 09:10:22;;;;;;;;;;;14.50;99.90;;;;;;5093083;28;19909;-66
2023/07/17 09:12:56;;;;;;;;;;;14.40;99.90;;;;;;5092618;28;20391;-63
2023/07/17 09:15:23;;;;;;;;;;;14.40;99.90;;;;;;5106513;28;19915;-63
2023/07/17 09:17:50;;;;;;;;;;;14.30;99.90;;;;;;5101531;28;19912;-66
2023/07/17 09:20:17;;;;;;;;;;;14.40;99.90;;;;;;5092644;28;19912;-63
2023/07/17 09:22:45;;;;;;;;;;;14.30;99.90;;;;;;5110958;28;19912;-68
2023/07/17 09:25:12;;;;;;;;;;;14.30;99.90;;;;;;5111557;28;19907;-65
2023/07/17 09:27:46;;;;;;;;;;;14.20;99.90;;;;;;5091022;28;19966;-66
2023/07/17 09:30:17;;;;;;;;;;;14.20;99.90;;;;;;5078802;28;20280;-66
2023/07/17 09:32:44;;;;;;;;;;;14.20;99.90;;;;;;5107148;28;19987;-66
2023/07/17 09:35:11;;;;;;;;;;;14.10;99.90;;;;;;5109396;28;19908;-66
2023/07/17 09:37:40;;;;;;;;;;;14.10;99.90;;;;;;5104297;28;19915;-69
2023/07/17 09:40:11;;;;;;;;;;;14.00;99.90;;;;;;5092196;28;19923;-66
2023/07/17 09:42:40;;;;;;;;;;;14.00;99.90;;;;;;5113248;28;20391;-67
2023/07/17 09:45:07;;;;;;;;;;;14.00;99.90;;;;;;5116568;28;19908;-63
2023/07/17 09:47:35;;;;;;;;;;;14.00;99.90;;;;;;5109085;28;19943;-67
2023/07/17 09:50:03;;;;;;;;;;;14.00;99.90;;;;;;5101388;28;20002;-67
2023/07/17 09:52:30;;;;;;;;;;;14.00;99.90;;;;;;5115841;28;19964;-68
2023/07/17 09:55:00;;;;;;;;;;;14.00;99.90;;;;;;5115869;28;20293;-63
2023/07/17 09:57:31;;;;;;;;;;;13.90;99.90;;;;;;5088582;28;20021;-64
2023/07/17 10:00:00;;;;;;;;;;;13.90;99.90;;;;;;5100949;28;19939;-67
2023/07/17 10:02:29;;;;;;;;;;;13.80;99.90;;;;;;5116080;27;19916;-67
2023/07/17 10:04:57;;;;;;;;;;;13.80;99.90;;;;;;5115613;28;19916;-66
2023/07/17 10:07:24;;;;;;;;;;;13.80;99.90;;;;;;5112562;28;19959;-65
2023/07/17 10:09:51;;;;;;;;;;;13.80;99.90;;;;;;5112517;28;19914;-66
2023/07/17 10:12:18;;;;;;;;;;;13.80;99.90;;;;;;5115647;28;19958;-69
2023/07/17 10:14:45;;;;;;;;;;;13.80;99.90;;;;;;5114790;28;19943;-66
2023/07/17 10:17:31;;;;;;;;;;;13.70;99.90;;;;;;5111273;28;19912;-65
2023/07/17 10:19:59;;;;;;;;;;;13.70;99.90;;;;;;5095267;28;19921;-65
2023/07/17 10:22:33;;;;;;;;;;;13.70;99.90;;;;;;5110999;28;19919;-66
2023/07/17 10:25:10;;;;;;;;;;;13.60;99.90;;;;;;5115274;28;19911;-64
2023/07/17 10:27:40;;;;;;;;;;;13.50;99.90;;;;;;5107994;28;19923;-66
2023/07/17 10:30:22;;;;;;;;;;;13.60;99.90;;;;;;5095175;28;19914;-65
2023/07/17 10:32:50;;;;;;;;;;;13.60;99.90;;;;;;5113383;28;19911;-66
2023/07/17 10:35:20;;;;;;;;;;;13.60;99.90;;;;;;5115563;28;20376;-65
2023/07/17 10:37:47;;;;;;;;;;;13.50;99.90;;;;;;5106552;27;19966;-66
2023/07/17 10:40:27;;;;;;;;;;;13.50;99.90;;;;;;5094469;28;19908;-65
2023/07/17 10:42:54;;;;;;;;;;;13.50;99.90;;;;;;5112662;28;19922;-63
2023/07/17 10:45:20;;;;;;;;;;;13.50;99.90;;;;;;5115085;28;20283;-64
2023/07/17 10:47:50;;;;;;;;;;;13.50;99.90;;;;;;5114924;28;20483;-67
2023/07/17 10:50:18;;;;;;;;;;;13.40;99.90;;;;;;5115059;28;19911;-65
2023/07/17 10:52:44;;;;;;;;;;;13.40;99.90;;;;;;5115321;28;20291;-67
2023/07/17 10:55:11;;;;;;;;;;;13.40;99.90;;;;;;5115110;28;19908;-64
2023/07/17 10:57:38;;;;;;;;;;;13.40;99.90;;;;;;5097165;28;19915;-66
2023/07/17 11:00:05;;;;;;;;;;;13.30;99.90;;;;;;5115058;28;19908;-63
2023/07/17 11:02:33;;;;;;;;;;;13.30;99.90;;;;;;5115482;28;19986;-62
2023/07/17 11:05:02;;;;;;;;;;;13.30;99.90;;;;;;5115147;28;20052;-64
2023/07/17 11:07:33;;;;;;;;;;;13.30;99.90;;;;;;5115102;28;20364;-63
2023/07/17 11:10:00;;;;;;;;;;;13.30;99.90;;;;;;5115018;28;19907;-65
2023/07/17 11:12:27;;;;;;;;;;;13.20;99.90;;;;;;5114786;28;19975;-66
2023/07/17 11:14:54;;;;;;;;;;;13.30;99.90;;;;;;5115234;28;19958;-63
2023/07/17 11:17:21;;;;;;;;;;;13.30;99.90;;;;;;5114607;28;20033;-67
2023/07/17 11:19:48;;;;;;;;;;;13.30;99.90;;;;;;5114829;28;19914;-66
2023/07/17 11:22:15;;;;;;;;;;;13.20;99.90;;;;;;5114777;28;19949;-67
2023/07/17 11:24:41;;;;;;;;;;;13.20;99.90;;;;;;5114637;28;19907;-65
2023/07/17 11:27:08;;;;;;;;;;;13.20;99.90;;;;;;5114356;28;19915;-62
2023/07/17 11:29:41;;;;;;;;;;;13.20;99.90;;;;;;5114835;28;19911;-65
2023/07/17 11:32:07;;;;;;;;;;;13.10;99.90;;;;;;5114286;28;19919;-66
2023/07/17 11:34:36;;;;;;;;;;;13.10;99.90;;;;;;5114125;28;19908;-66
2023/07/17 11:37:03;;;;;;;;;;;13.10;99.90;;;;;;5113591;28;19912;-62
2023/07/17 11:39:32;;;;;;;;;;;13.00;99.90;;;;;;5111355;28;19911;-65
2023/07/17 11:41:58;;;;;;;;;;;13.00;99.90;;;;;;5114270;28;20006;-65
2023/07/17 11:44:26;;;;;;;;;;;13.00;99.90;;;;;;5114780;28;19916;-63
2023/07/17 11:47:12;;;;;;;;;;;13.00;99.90;;;;;;5113690;28;20283;-65
2023/07/17 11:49:42;;;;;;;;;;;13.00;99.90;;;;;;5093696;28;19908;-64
2023/07/17 11:52:18;;;;;;;;;;;13.00;99.90;;;;;;5093886;28;19999;-65
2023/07/17 11:54:45;;;;;;;;;;;13.00;99.90;;;;;;5093957;28;20024;-67
2023/07/17 11:57:12;;;;;;;;;;;12.90;99.90;;;;;;5097187;28;19907;-65
2023/07/17 11:59:38;;;;;;;;;;;12.90;99.90;;;;;;5114015;28;19907;-67
2023/07/17 12:02:05;;;;;;;;;;;12.90;99.90;;;;;;5114177;28;19961;-68
2023/07/17 12:04:41;;;;;;;;;;;12.90;99.90;;;;;;5113544;28;19908;-65
2023/07/17 12:07:18;;;;;;;;;;;12.90;99.90;;;;;;5113852;28;19916;-66
2023/07/17 12:09:46;;;;;;;;;;;12.80;99.90;;;;;;5113840;28;19908;-67
2023/07/17 12:12:12;;;;;;;;;;;12.80;99.90;;;;;;5113960;28;19954;-67
2023/07/17 12:14:39;;;;;;;;;;;12.80;99.90;;;;;;5113054;28;19912;-65
2023/07/17 12:17:06;;;;;;;;;;;12.70;99.90;;;;;;5114229;28;19908;-66
2023/07/17 12:19:32;;;;;;;;;;;12.80;99.90;;;;;;5113887;28;20368;-68
2023/07/17 12:21:59;;;;;;;;;;;12.70;99.90;;;;;;5113839;28;19908;-65
2023/07/17 12:24:26;;;;;;;;;;;12.70;99.90;;;;;;5112896;28;19915;-66
2023/07/17 12:26:53;;;;;;;;;;;12.70;99.90;;;;;;5113757;28;19916;-67
2023/07/17 12:29:20;;;;;;;;;;;12.70;99.90;;;;;;5109826;28;19909;-66
2023/07/17 12:31:46;;;;;;;;;;;12.70;99.90;;;;;;5112814;28;19904;-65
2023/07/17 12:34:13;;;;;;;;;;;12.60;99.90;;;;;;5109144;28;19920;-65
2023/07/17 12:36:40;;;;;;;;;;;12.60;99.90;;;;;;5113218;28;20390;-67
2023/07/17 12:39:15;;;;;;;;;;;12.60;99.90;;;;;;5113585;28;20284;-67
2023/07/17 12:41:43;;;;;;;;;;;12.60;99.90;;;;;;5113630;28;19914;-64
2023/07/17 12:44:10;;;;;;;;;;;12.60;99.90;;;;;;5113212;28;20038;-68
2023/07/17 12:46:37;;;;;;;;;;;12.60;99.90;;;;;;5113331;28;19927;-67
2023/07/17 12:49:03;;;;;;;;;;;12.60;99.90;;;;;;5113770;28;19915;-65
2023/07/17 12:51:30;;;;;;;;;;;12.50;99.90;;;;;;5097978;28;19912;-66
2023/07/17 12:53:57;;;;;;;;;;;12.50;99.90;;;;;;5093137;28;19918;-67
2023/07/17 12:56:23;;;;;;;;;;;12.50;99.90;;;;;;5093252;28;19908;-67
2023/07/17 12:58:51;;;;;;;;;;;12.40;99.90;;;;;;5092991;28;19908;-66
2023/07/17 13:01:17;;;;;;;;;;;12.40;99.90;;;;;;5109418;28;19965;-67
2023/07/17 13:03:44;;;;;;;;;;;12.40;99.90;;;;;;5113376;28;19908;-66
2023/07/17 13:06:10;;;;;;;;;;;12.50;99.90;;;;;;5113040;28;19923;-66
2023/07/17 13:08:37;;;;;;;;;;;12.50;99.90;;;;;;5113627;28;19913;-65
2023/07/17 13:11:04;;;;;;;;;;;12.40;99.90;;;;;;5113081;28;19995;-67
2023/07/17 13:13:30;;;;;;;;;;;12.40;99.90;;;;;;5113445;28;19970;-67
2023/07/17 13:15:57;;;;;;;;;;;12.40;99.90;;;;;;5112260;28;19972;-68
2023/07/17 13:18:24;;;;;;;;;;;12.40;99.90;;;;;;5109682;28;20253;-68
2023/07/17 13:20:50;;;;;;;;;;;12.40;99.90;;;;;;5108313;28;19908;-68
2023/07/17 13:23:17;;;;;;;;;;;12.40;99.90;;;;;;5092216;28;20274;-66
2023/07/17 13:25:45;;;;;;;;;;;12.30;99.90;;;;;;5092568;28;19987;-66
2023/07/17 13:28:12;;;;;;;;;;;12.30;99.90;;;;;;5100414;28;19911;-65
2023/07/17 13:30:39;;;;;;;;;;;12.30;99.90;;;;;;5112497;28;19908;-66
2023/07/17 13:33:06;;;;;;;;;;;12.30;99.90;;;;;;5112678;28;19908;-67
2023/07/17 13:35:32;;;;;;;;;;;12.20;99.90;;;;;;5112649;28;19999;-66
2023/07/17 13:37:59;;;;;;;;;;;12.30;99.90;;;;;;5112377;28;19915;-67
2023/07/17 13:40:26;;;;;;;;;;;12.20;99.90;;;;;;5112503;28;20352;-67
2023/07/17 13:42:52;;;;;;;;;;;12.30;99.90;;;;;;5112864;28;20403;-66
2023/07/17 13:45:21;;;;;;;;;;;12.20;99.90;;;;;;5094472;28;19908;-67
2023/07/17 13:47:48;;;;;;;;;;;12.20;99.90;;;;;;5111938;28;19922;-67
2023/07/17 13:50:14;;;;;;;;;;;12.20;99.90;;;;;;5111971;28;19907;-66
2023/07/17 13:52:41;;;;;;;;;;;12.20;99.90;;;;;;5112500;28;19914;-67
2023/07/17 13:55:08;;;;;;;;;;;12.20;99.90;;;;;;5112977;28;19907;-64
2023/07/17 13:57:35;;;;;;;;;;;12.20;99.90;;;;;;5110766;28;20026;-66
2023/07/17 14:00:02;;;;;;;;;;;12.20;99.90;;;;;;5111994;28;19964;-64
2023/07/17 14:02:29;;;;;;;;;;;12.10;99.90;;;;;;5109528;28;19919;-66
2023/07/17 14:04:55;;;;;;;;;;;12.10;99.90;;;;;;5112079;28;19908;-66
2023/07/17 14:07:22;;;;;;;;;;;12.10;99.90;;;;;;5112441;28;19916;-66
2023/07/17 14:09:49;;;;;;;;;;;12.00;99.90;;;;;;5112581;28;19915;-66
2023/07/17 14:12:15;;;;;;;;;;;12.00;99.90;;;;;;5112022;28;19907;-67
2023/07/17 14:14:42;;;;;;;;;;;12.10;99.90;;;;;;5112478;28;20011;-64
2023/07/17 14:17:09;;;;;;;;;;;12.00;99.90;;;;;;5112284;28;19907;-67